ADDS METAR Data INFO
IDs: Format: Raw Decoded Include TAF

Data at: 0201 UTC 17 Oct 2017

KBDE 170153Z AUTO 24007KT 10SM CLR 13/03 A2979 RMK AO2 SLP097 T01280028
KBDE 170053Z AUTO 24006KT 10SM CLR 14/03 A2980 RMK AO2 SLP099 T01390028
KBDE 162353Z AUTO 26007KT 10SM CLR 14/02 A2980 RMK AO2 SLP098 T01440022 10189 20144 53004
KBDE 162253Z AUTO 24011KT 10SM CLR 17/03 A2978 RMK AO2 SLP092 T01670028
KBDE 162153Z AUTO 24015G24KT 10SM CLR 18/02 A2978 RMK AO2 PK WND 24030/2101 SLP092 T01780022
KBDE 162053Z AUTO 23018G26KT 10SM CLR 18/02 A2978 RMK AO2 PK WND 22028/2038 SLP092 T01830017 56037
KBDE 161953Z AUTO 20019G25KT 10SM CLR 18/02 A2979 RMK AO2 PK WND 20026/1932 SLP094 T01780017
KBDE 161853Z AUTO 19019G25KT 10SM CLR 17/01 A2983 RMK AO2 PK WND 20026/1807 PRESFR SLP110 T01670011
KBDE 161753Z AUTO 20016G23KT 10SM FEW090 16/01 A2990 RMK AO2 SLP131 T01560011 10156 20000 58032 $
KBDE 161653Z AUTO 20012G20KT 10SM CLR 13/01 A2993 RMK AO2 SLP144 T01280011 $
KBDE 161553Z AUTO 21011KT 10SM CLR 09/02 A2997 RMK AO2 SLP159 T00940017 $
KBDE 161453Z AUTO 21009KT 10SM CLR 06/01 A2999 RMK AO2 SLP167 T00560011 $
KBDE 161353Z AUTO 21007KT 10SM CLR 01/M01 A3001 RMK AO2 SLP176 T00111006 $
KBDE 161253Z AUTO 20006KT 10SM CLR 00/M01 A3003 RMK AO2 SLP182 T00001011 $
KBDE 161153Z AUTO 22005KT 10SM CLR 00/M02 A3005 RMK AO2 SLP187 T00001017 10022 21006 58009
KBDE 161053Z AUTO 20004KT 10SM CLR M01/M02 A3006 RMK AO2 SLP191 T10061017
KBDE 160953Z AUTO 20003KT 10SM CLR M01/M02 A3007 RMK AO2 SLP194 T10061017
KBDE 160853Z AUTO 20003KT 10SM CLR 00/M02 A3008 RMK AO2 SLP196 T00001017 50001
KBDE 160753Z AUTO 24003KT 10SM CLR 02/M01 A3008 RMK AO2 SLP200 T00171006
KBDE 160653Z AUTO 25003KT 10SM CLR 01/M01 A3008 RMK AO2 SLP199 T00111011
KBDE 160553Z AUTO 24004KT 10SM CLR 01/M01 A3007 RMK AO2 SLP196 T00111011 10078 20011 401001044 51000
KBDE 160453Z AUTO 24003KT 10SM CLR 03/M01 A3007 RMK AO2 SLP196 T00331006
KBDE 160353Z AUTO 26006KT 10SM CLR 03/M01 A3008 RMK AO2 SLP200 T00331006
KBDE 160253Z AUTO 26006KT 10SM CLR 04/M01 A3007 RMK AO2 SLP197 T00391006 53006
KBDE 160153Z AUTO 24005KT 10SM CLR 04/M01 A3007 RMK AO2 SLP195 T00441006
KBDE 160053Z AUTO 20004KT 10SM CLR 05/M01 A3006 RMK AO2 SLP194 T00501006
KBDE 152353Z AUTO 23004KT 10SM FEW050 SCT070 08/M01 A3005 RMK AO2 SLP191 T00781006 10100 20067 53007
KBDE 152253Z AUTO 26008KT 10SM OVC085 09/00 A3005 RMK AO2 SLP188 T00940000
KBDE 152153Z AUTO 23008KT 10SM BKN085 09/01 A3003 RMK AO2 SLP182 T00890006
KBDE 152053Z AUTO 23012KT 10SM OVC100 09/01 A3003 RMK AO2 SLP181 T00940006 56009
KBDE 151953Z AUTO 21013G18KT 10SM SCT060 BKN075 OVC100 07/M01 A3003 RMK AO2 SLP182 T00721006
KBDE 151853Z AUTO 20008KT 10SM FEW045 SCT055 OVC070 08/M01 A3004 RMK AO2 SLP184 T00781011
KBDE 151753Z AUTO 20010KT 10SM BKN060 BKN085 07/M02 A3006 RMK AO2 SLP191 I6001 T00671017 10067 21044 58011
KBDE 151653Z AUTO 22007KT 10SM CLR 06/M01 A3008 RMK AO2 SLP198 T00561006
KBDE 151553Z AUTO 19005KT 10SM CLR 04/M01 A3008 RMK AO2 SLP198 T00391006
KBDE 151453Z AUTO 22006KT 10SM CLR 02/00 A3009 RMK AO2 SLP203 I3001 T00220000 53001